Startpagina
METAR-TAF:

METAR-TAF

Vliegvelden :

Aéroport de Paris-Beauvais-Tillé

Beauvais, Frankrijk

breedte: 49-28N, lengte: 002-07E, hoogte: 109 m

Actueel weer

Dit bericht is 43 minuten geleden gemaakt, om 14:00 UTC
Wind 5 kt uit het noorden, variërend tussen het noordnoordwesten en het noordoosten
Temperatuur 3°C
Vochtigheid 87%
Druk 1015 hPa
Zicht: 5000 m
Geheel bewolkt op 900 ft
nevel

METAR: LFOB 201400Z AUTO 01005KT 340V040 5000 BR OVC009 03/01 Q1015 TEMPO OVC013

Tijdstip: 15:43 (14:43 UTC)

Verwachting

Dit bericht is 3 uur en het 43 minuten geleden gemaakt, om 11:00 UTC
Verwachting geldig van 20 om 12 UTC tot 21 om 12 UTC
Wind 8 kt uit het noordnoordoosten
Zicht: 6000 m
Geheel bewolkt op 700 ft
Tijdelijke
van 20 om 13 UTC tot 20 om 18 UTC
Geheel bewolkt op 1300 ft
Wijzigt naar
van 20 om 19 UTC tot 20 om 21 UTC

TAF: LFOB 201100Z 2012/2112 02008KT 6000 OVC007 TEMPO 2013/2018 OVC013 BECMG 2019/2021 NSC

Waarnemingen en weersverwachtingen van meer dan 4000 vliegvelden (METAR en TAF).

De beschikbare stations zijn de gele en rode punten op de kaart.

Ga met uw muis naar het station om de naam te zien.

Klik dan om waarnemingen en weersverwachtingen te zien.

kaart wijzigen: klik op de groene knoppen met een zwart kruis om in te zoomen, op de groene knop met een streepje om uit te zoomen of op de groene pijlen voor aangrenzende kaarten.


METAR-TAF: